Terminal Aerodrome Forecast
Issued by NWS

Home | Current Version | Previous Version | Text Only | Print | Product List | Glossary On
Versions: 1 2 3 4 5 6 7 8 9 10 11 12 13 14
000
FTUS45 KRIW 302322
TAFBPI
TAF
KBPI 302322Z 3100/3124 15010KT P6SM -RA SCT040 BKN080
     FM310400 02012KT 5SM -RA OVC014
     FM310900 01014KT 3SM -RASN OVC012
     FM311200 35010G20KT 5SM -SHSN OVC030
     FM311800 01029G39KT P6SM BKN040=

USA.gov is the U.S. government's official web portal to all federal, state and local government web resources and services.